createdAt,value
2022-11-07T00:02:03.434Z,11.5
2022-11-07T00:04:28.437Z,11.5
2022-11-07T00:06:55.077Z,11.5
2022-11-07T00:09:21.768Z,11.5
2022-11-07T00:14:14.950Z,11.5
2022-11-07T00:16:41.565Z,11.5
2022-11-07T00:19:08.188Z,11.5
2022-11-07T00:21:34.802Z,11.5
2022-11-07T00:24:01.441Z,11.5
2022-11-07T00:26:28.135Z,11.4
2022-11-07T00:28:54.689Z,11.5
2022-11-07T00:31:21.344Z,11.4
2022-11-07T00:33:47.950Z,11.5
2022-11-07T00:36:14.561Z,11.4
2022-11-07T00:38:39.675Z,11.4
2022-11-07T00:41:06.303Z,11.5
2022-11-07T00:43:32.928Z,11.5
2022-11-07T00:45:59.558Z,11.4
2022-11-07T00:48:26.190Z,11.5
2022-11-07T00:50:52.803Z,11.5
2022-11-07T00:53:17.983Z,11.4
2022-11-07T00:58:09.660Z,11.5
2022-11-07T01:00:36.301Z,11.4
2022-11-07T01:03:02.934Z,11.4
2022-11-07T01:05:29.545Z,11.4
2022-11-07T01:07:56.167Z,11.4
2022-11-07T01:10:22.844Z,11.4
2022-11-07T01:12:49.443Z,11.4
2022-11-07T01:15:16.032Z,11.4
2022-11-07T01:17:42.647Z,11.4
2022-11-07T01:20:09.287Z,11.4
2022-11-07T01:22:34.408Z,11.4
2022-11-07T01:24:59.538Z,11.4
2022-11-07T01:27:26.165Z,11.4
2022-11-07T01:29:52.790Z,11.4
2022-11-07T01:34:46.034Z,11.4
2022-11-07T01:37:12.649Z,11.4
2022-11-07T01:39:39.324Z,11.4
2022-11-07T01:42:05.900Z,11.4
2022-11-07T01:44:32.515Z,11.4
2022-11-07T01:46:59.140Z,11.4
2022-11-07T01:51:52.393Z,11.4
2022-11-07T01:56:44.152Z,11.4
2022-11-07T01:59:10.784Z,11.5
2022-11-07T02:04:02.537Z,11.4
2022-11-07T02:08:54.279Z,11.4
2022-11-07T02:11:19.411Z,11.4
2022-11-07T02:13:44.606Z,11.4
2022-11-07T02:16:11.196Z,11.4
2022-11-07T02:18:36.331Z,11.4
2022-11-07T02:23:29.540Z,11.4
2022-11-07T02:25:56.161Z,11.4
2022-11-07T02:28:22.783Z,11.4
2022-11-07T02:33:16.044Z,11.4
2022-11-07T02:35:42.661Z,11.4
2022-11-07T02:38:09.267Z,11.4
2022-11-07T02:40:35.902Z,11.4
2022-11-07T02:43:01.021Z,11.4
2022-11-07T02:45:26.160Z,11.4
2022-11-07T02:47:52.779Z,11.4
2022-11-07T02:55:12.636Z,11.4
2022-11-07T02:57:39.423Z,11.4
2022-11-07T03:00:05.892Z,11.4
2022-11-07T03:02:32.510Z,11.4
2022-11-07T03:04:59.142Z,11.4
2022-11-07T03:09:52.383Z,11.4
2022-11-07T03:12:19.019Z,11.4
2022-11-07T03:14:45.629Z,11.4
2022-11-07T03:17:10.807Z,11.4
2022-11-07T03:19:37.380Z,11.4
2022-11-07T03:22:04.053Z,11.4
2022-11-07T03:24:30.616Z,11.4
2022-11-07T03:26:57.235Z,11.4
2022-11-07T03:29:23.870Z,11.4
2022-11-07T03:31:50.490Z,11.4
2022-11-07T03:34:17.130Z,11.4
2022-11-07T03:36:43.737Z,11.4
2022-11-07T03:39:10.370Z,11.4
2022-11-07T03:41:37.023Z,11.4
2022-11-07T03:44:03.601Z,11.4
2022-11-07T03:46:30.242Z,11.4
2022-11-07T03:48:55.351Z,11.4
2022-11-07T03:51:20.490Z,11.4
2022-11-07T03:53:47.108Z,11.4
2022-11-07T03:56:13.734Z,11.4
2022-11-07T03:58:40.360Z,11.4
2022-11-07T04:01:07.027Z,11.4
2022-11-07T04:03:33.597Z,11.4
2022-11-07T04:06:00.225Z,11.4
2022-11-07T04:08:26.855Z,11.4
2022-11-07T04:10:53.472Z,11.4
2022-11-07T04:13:20.092Z,11.4
2022-11-07T04:15:45.226Z,11.4
2022-11-07T04:18:10.360Z,11.4
2022-11-07T04:23:03.599Z,11.4
2022-11-07T04:25:30.228Z,11.4
2022-11-07T04:27:56.858Z,11.4
2022-11-07T04:30:23.522Z,11.4
2022-11-07T04:32:50.112Z,11.4
2022-11-07T04:35:16.734Z,11.4
2022-11-07T04:37:43.374Z,11.4
2022-11-07T04:40:09.968Z,11.4
2022-11-07T04:42:36.602Z,11.4
2022-11-07T04:45:03.256Z,11.4
2022-11-07T04:47:29.894Z,11.4
2022-11-07T04:49:56.462Z,11.4
2022-11-07T04:52:21.568Z,11.4
2022-11-07T04:54:48.201Z,11.4
2022-11-07T04:59:41.523Z,11.4
2022-11-07T05:02:06.606Z,11.4
2022-11-07T05:04:33.219Z,11.4
2022-11-07T05:06:59.855Z,11.4
2022-11-07T05:09:24.960Z,11.4
2022-11-07T05:11:51.602Z,11.4
2022-11-07T05:14:18.242Z,11.4
2022-11-07T05:19:11.456Z,11.4
2022-11-07T05:24:04.689Z,11.4
2022-11-07T05:26:31.331Z,11.4
2022-11-07T05:28:57.996Z,11.4
2022-11-07T05:31:24.581Z,11.4
2022-11-07T05:33:49.701Z,11.4
2022-11-07T05:36:16.372Z,11.4
2022-11-07T05:38:41.451Z,11.4
2022-11-07T05:43:34.717Z,11.4
2022-11-07T05:46:01.312Z,11.4
2022-11-07T05:48:27.942Z,11.4
2022-11-07T05:50:54.563Z,11.4
2022-11-07T05:53:21.186Z,11.4
2022-11-07T05:55:47.789Z,11.4
2022-11-07T05:58:14.500Z,11.4
2022-11-07T06:00:41.046Z,11.4
2022-11-07T06:05:34.294Z,11.4
2022-11-07T06:08:00.945Z,11.4
2022-11-07T06:10:26.228Z,11.4
2022-11-07T06:12:52.660Z,11.4
2022-11-07T06:17:45.904Z,11.5
2022-11-07T06:20:12.515Z,11.4
2022-11-07T06:22:39.163Z,11.4
2022-11-07T06:25:05.794Z,11.4
2022-11-07T06:27:32.396Z,11.4
2022-11-07T06:29:59.024Z,11.4
2022-11-07T06:32:25.660Z,11.4
2022-11-07T06:34:52.271Z,11.4
2022-11-07T06:37:18.895Z,11.4
2022-11-07T06:39:45.517Z,11.5
2022-11-07T06:42:10.652Z,11.4
2022-11-07T06:44:37.289Z,11.4
2022-11-07T06:47:03.876Z,11.4
2022-11-07T06:49:30.501Z,11.4
2022-11-07T06:51:57.144Z,11.4
2022-11-07T06:54:23.750Z,11.4
2022-11-07T06:56:48.907Z,11.4
2022-11-07T06:59:15.556Z,11.4
2022-11-07T07:01:42.163Z,11.4
2022-11-07T07:04:08.887Z,11.5
2022-11-07T07:06:33.908Z,11.4
2022-11-07T07:09:00.614Z,11.4
2022-11-07T07:11:27.139Z,11.4
2022-11-07T07:13:53.800Z,11.5
2022-11-07T07:16:20.373Z,11.5
2022-11-07T07:18:46.992Z,11.4
2022-11-07T07:21:13.647Z,11.4
2022-11-07T07:23:38.805Z,11.4
2022-11-07T07:26:03.951Z,11.4
2022-11-07T07:28:30.511Z,11.5
2022-11-07T07:30:57.121Z,11.4
2022-11-07T07:33:23.761Z,11.4
2022-11-07T07:35:50.468Z,11.5
2022-11-07T07:38:17.024Z,11.4
2022-11-07T07:40:43.706Z,11.5
2022-11-07T07:43:10.235Z,11.4
2022-11-07T07:45:36.952Z,11.4
2022-11-07T07:48:03.485Z,11.4
2022-11-07T07:50:30.109Z,11.5
2022-11-07T07:52:56.800Z,11.4
2022-11-07T07:55:23.347Z,11.4
2022-11-07T07:57:49.973Z,11.4
2022-11-07T08:00:15.241Z,11.4
2022-11-07T08:02:41.734Z,11.4
2022-11-07T08:05:08.428Z,11.5
2022-11-07T08:07:35.014Z,11.4
2022-11-07T08:10:01.600Z,11.4
2022-11-07T08:12:28.292Z,11.4
2022-11-07T08:14:55.039Z,11.4
2022-11-07T08:17:21.567Z,11.5
2022-11-07T08:19:48.360Z,11.4
2022-11-07T08:22:14.740Z,11.4
2022-11-07T08:24:41.487Z,11.4
2022-11-07T08:27:08.037Z,11.4
2022-11-07T08:32:01.249Z,11.5
2022-11-07T08:34:26.384Z,11.4
2022-11-07T08:36:52.981Z,11.4
2022-11-07T08:39:19.642Z,11.4
2022-11-07T08:41:46.280Z,11.4
2022-11-07T08:44:12.819Z,11.4
2022-11-07T08:46:39.448Z,11.4
2022-11-07T08:49:06.216Z,11.4
2022-11-07T08:51:32.711Z,11.5
2022-11-07T08:53:59.337Z,11.4
2022-11-07T08:56:26.091Z,11.4
2022-11-07T08:58:52.583Z,11.5
2022-11-07T09:01:19.205Z,11.6
2022-11-07T09:03:45.893Z,11.6
2022-11-07T09:06:10.946Z,11.6
2022-11-07T09:08:37.562Z,11.7
2022-11-07T09:11:04.260Z,11.7
2022-11-07T09:18:24.048Z,11.7
2022-11-07T09:20:49.212Z,11.7
2022-11-07T09:23:14.315Z,11.8
2022-11-07T09:25:40.932Z,11.9
2022-11-07T09:28:07.618Z,11.9
2022-11-07T09:30:34.175Z,12
2022-11-07T09:33:00.794Z,12
2022-11-07T09:35:27.406Z,11.9
2022-11-07T09:37:54.058Z,12
2022-11-07T09:40:20.665Z,12
2022-11-07T09:42:47.296Z,11.9
2022-11-07T09:45:14.160Z,12
2022-11-07T09:47:39.152Z,12
2022-11-07T09:50:04.223Z,12
2022-11-07T09:52:30.797Z,12
2022-11-07T09:54:57.481Z,12
2022-11-07T09:57:24.044Z,12
2022-11-07T09:59:50.738Z,12.1
2022-11-07T10:02:17.427Z,12.1
2022-11-07T10:04:44.038Z,12.1
2022-11-07T10:07:10.560Z,12
2022-11-07T10:09:37.226Z,11.9
2022-11-07T10:12:03.771Z,11.9
2022-11-07T10:14:30.407Z,11.9
2022-11-07T10:16:57.019Z,11.9
2022-11-07T10:19:23.658Z,11.9
2022-11-07T10:21:48.784Z,12
2022-11-07T10:24:15.396Z,12
2022-11-07T10:26:42.142Z,12.1
2022-11-07T10:29:08.639Z,12.1
2022-11-07T10:31:33.857Z,12.1
2022-11-07T10:34:00.392Z,12.1
2022-11-07T10:36:27.029Z,12.1
2022-11-07T10:38:53.682Z,12.1
2022-11-07T10:41:20.300Z,12.1
2022-11-07T10:43:46.874Z,12.1
2022-11-07T10:46:13.564Z,12.1
2022-11-07T10:48:40.127Z,12.2
2022-11-07T10:51:06.754Z,12.2
2022-11-07T10:53:33.444Z,12.2
2022-11-07T10:56:00.062Z,12.2
2022-11-07T10:58:26.695Z,12.2
2022-11-07T11:00:53.246Z,12.1
2022-11-07T11:03:18.376Z,12.1
2022-11-07T11:08:11.653Z,12.1
2022-11-07T11:13:04.905Z,12
2022-11-07T11:15:31.533Z,12
2022-11-07T11:17:58.164Z,12
2022-11-07T11:20:24.729Z,12
2022-11-07T11:22:51.418Z,11.9
2022-11-07T11:27:44.674Z,11.9
2022-11-07T11:30:09.820Z,11.9
2022-11-07T11:32:34.985Z,11.9
2022-11-07T11:37:28.132Z,11.9
2022-11-07T11:39:54.789Z,11.9
2022-11-07T11:42:21.360Z,11.9
2022-11-07T11:44:47.978Z,11.9
2022-11-07T11:47:14.628Z,11.9
2022-11-07T11:49:41.257Z,11.9
2022-11-07T11:52:07.845Z,11.9
2022-11-07T11:54:34.463Z,11.9
2022-11-07T11:57:01.084Z,11.9
2022-11-07T11:59:27.930Z,11.9
2022-11-07T12:01:54.372Z,11.9
2022-11-07T12:06:46.096Z,11.9
2022-11-07T12:09:11.289Z,11.9
2022-11-07T12:11:37.836Z,11.9
2022-11-07T12:14:03.018Z,11.9
2022-11-07T12:16:29.660Z,11.9
2022-11-07T12:18:56.205Z,11.9
2022-11-07T12:21:22.855Z,11.9
2022-11-07T12:23:49.468Z,11.9
2022-11-07T12:26:16.096Z,11.9
2022-11-07T12:28:42.701Z,11.9
2022-11-07T12:31:09.349Z,11.9
2022-11-07T12:33:35.950Z,11.9
2022-11-07T12:36:02.570Z,11.9
2022-11-07T12:38:27.705Z,11.9
2022-11-07T12:40:54.330Z,11.9
2022-11-07T12:43:19.536Z,11.9
2022-11-07T12:45:46.063Z,11.9
2022-11-07T12:48:12.747Z,11.9
2022-11-07T12:50:39.312Z,11.9
2022-11-07T12:53:05.940Z,11.9
2022-11-07T12:55:32.553Z,11.9
2022-11-07T12:57:59.179Z,11.9
2022-11-07T13:00:25.802Z,11.9
2022-11-07T13:02:52.425Z,11.9
2022-11-07T13:05:19.100Z,11.9
2022-11-07T13:07:44.181Z,11.9
2022-11-07T13:10:09.296Z,11.9
2022-11-07T13:12:35.960Z,11.9
2022-11-07T13:15:02.546Z,11.9
2022-11-07T13:17:29.191Z,11.9
2022-11-07T13:19:55.835Z,12
2022-11-07T13:22:22.505Z,11.9
2022-11-07T13:24:49.047Z,11.9
2022-11-07T13:27:15.675Z,12
2022-11-07T13:29:42.384Z,12
2022-11-07T13:32:08.923Z,12
2022-11-07T13:34:35.534Z,12
2022-11-07T13:39:28.784Z,12
2022-11-07T13:41:53.917Z,12
2022-11-07T13:44:20.536Z,12
2022-11-07T13:46:47.150Z,12
2022-11-07T13:49:13.771Z,12
2022-11-07T13:51:40.399Z,12
2022-11-07T13:54:07.067Z,12
2022-11-07T13:56:33.654Z,12
2022-11-07T13:59:00.284Z,12
2022-11-07T14:01:26.889Z,12.1
2022-11-07T14:03:53.510Z,12
2022-11-07T14:11:13.414Z,12
2022-11-07T14:13:38.517Z,12.1
2022-11-07T14:16:03.690Z,12.1
2022-11-07T14:18:30.266Z,12.1
2022-11-07T14:20:56.911Z,12.1
2022-11-07T14:23:23.493Z,12.1
2022-11-07T14:25:50.127Z,12.1
2022-11-07T14:28:16.803Z,12.1
2022-11-07T14:30:43.412Z,12.1
2022-11-07T14:33:10.062Z,12.1
2022-11-07T14:38:03.231Z,12.1
2022-11-07T14:40:29.864Z,12.1
2022-11-07T14:42:56.534Z,12.1
2022-11-07T14:45:23.114Z,12.1
2022-11-07T14:47:48.240Z,12.1
2022-11-07T14:50:14.865Z,12.1
2022-11-07T14:52:41.477Z,12.1
2022-11-07T14:55:08.176Z,12.1
2022-11-07T14:57:34.715Z,12.1
2022-11-07T15:00:01.362Z,12.1
2022-11-07T15:02:27.981Z,12.1
2022-11-07T15:04:54.596Z,12.1
2022-11-07T15:07:19.746Z,12.1
2022-11-07T15:09:44.869Z,12.1
2022-11-07T15:12:11.479Z,12.1
2022-11-07T15:14:38.101Z,12.1
2022-11-07T15:17:04.748Z,12.1
2022-11-07T15:21:58.039Z,12.1
2022-11-07T15:24:24.655Z,12.1
2022-11-07T15:26:51.208Z,12.1
2022-11-07T15:29:17.822Z,12.1
2022-11-07T15:31:44.450Z,12.1
2022-11-07T15:34:11.201Z,12.1
2022-11-07T15:36:37.693Z,12.1
2022-11-07T15:39:04.316Z,12.1
2022-11-07T15:41:31.117Z,12.1
2022-11-07T15:43:56.212Z,12.1
2022-11-07T15:46:22.782Z,12.1
2022-11-07T15:51:16.010Z,12.2
2022-11-07T15:53:41.123Z,12.2
2022-11-07T15:56:06.207Z,12.2
2022-11-07T15:58:32.850Z,12.2
2022-11-07T16:00:59.659Z,12.2
2022-11-07T16:05:52.699Z,12.2
2022-11-07T16:08:19.323Z,12.2
2022-11-07T16:10:45.947Z,12.2
2022-11-07T16:13:12.568Z,12.2
2022-11-07T16:15:39.365Z,12.2
2022-11-07T16:20:32.472Z,12.2
2022-11-07T16:22:59.041Z,12.2
2022-11-07T16:25:24.171Z,12.2
2022-11-07T16:27:49.302Z,12.2
2022-11-07T16:30:15.935Z,12.2
2022-11-07T16:32:42.549Z,12.2
2022-11-07T16:35:09.165Z,12.2
2022-11-07T16:37:35.890Z,12.2
2022-11-07T16:40:02.450Z,12.2
2022-11-07T16:42:29.054Z,12.2
2022-11-07T16:47:22.280Z,12.3
2022-11-07T16:49:48.913Z,12.3
2022-11-07T16:52:15.623Z,12.3
2022-11-07T16:54:42.158Z,12.3
2022-11-07T16:57:08.802Z,12.3
2022-11-07T16:59:33.899Z,12.3
2022-11-07T17:02:00.543Z,12.4
2022-11-07T17:06:53.769Z,12.4
2022-11-07T17:11:47.008Z,12.4
2022-11-07T17:14:13.631Z,12.4
2022-11-07T17:16:40.261Z,12.4
2022-11-07T17:19:06.921Z,12.4
2022-11-07T17:24:00.137Z,12.4
2022-11-07T17:26:26.817Z,12.4
2022-11-07T17:28:53.424Z,12.4
2022-11-07T17:31:18.492Z,12.4
2022-11-07T17:36:11.752Z,12.4
2022-11-07T17:38:38.363Z,12.4
2022-11-07T17:41:04.997Z,12.5
2022-11-07T17:43:31.616Z,12.5
2022-11-07T17:45:58.238Z,12.6
2022-11-07T17:50:51.558Z,12.5
2022-11-07T17:53:18.108Z,12.4
2022-11-07T17:55:44.727Z,12.4
2022-11-07T18:00:37.989Z,12.4
2022-11-07T18:05:29.753Z,12.4
2022-11-07T18:07:56.327Z,12.5
2022-11-07T18:10:22.961Z,12.4
2022-11-07T18:12:49.620Z,12.5
2022-11-07T18:15:16.224Z,12.5
2022-11-07T18:20:09.467Z,12.5
2022-11-07T18:25:02.724Z,12.6
2022-11-07T18:27:29.322Z,12.6
2022-11-07T18:29:55.956Z,12.6
2022-11-07T18:32:22.676Z,12.6
2022-11-07T18:34:47.705Z,12.6
2022-11-07T18:37:14.316Z,12.6
2022-11-07T18:39:40.941Z,12.6
2022-11-07T18:44:32.710Z,12.6
2022-11-07T18:49:24.484Z,12.7
2022-11-07T18:51:49.616Z,12.6
2022-11-07T18:54:16.223Z,12.7
2022-11-07T18:56:42.834Z,12.6
2022-11-07T18:59:09.470Z,12.6
2022-11-07T19:01:36.093Z,12.6
2022-11-07T19:04:02.778Z,12.6
2022-11-07T19:08:55.952Z,12.6
2022-11-07T19:13:49.234Z,12.6
2022-11-07T19:16:15.827Z,12.6
2022-11-07T19:18:42.449Z,12.6
2022-11-07T19:21:09.068Z,12.6
2022-11-07T19:23:34.204Z,12.6
2022-11-07T19:26:00.823Z,12.6
2022-11-07T19:28:27.485Z,12.6
2022-11-07T19:33:20.841Z,12.6
2022-11-07T19:35:47.322Z,12.6
2022-11-07T19:38:14.001Z,12.5
2022-11-07T19:40:40.583Z,12.5
2022-11-07T19:43:07.179Z,12.5
2022-11-07T19:45:33.794Z,12.5
2022-11-07T19:48:00.439Z,12.5
2022-11-07T19:50:27.064Z,12.5
2022-11-07T19:52:53.805Z,12.5
2022-11-07T19:55:18.804Z,12.5
2022-11-07T19:57:45.431Z,12.5
2022-11-07T20:02:38.674Z,12.5
2022-11-07T20:07:31.926Z,12.5
2022-11-07T20:09:58.551Z,12.5
2022-11-07T20:12:25.181Z,12.5
2022-11-07T20:14:51.786Z,12.5
2022-11-07T20:17:18.416Z,12.5
2022-11-07T20:19:45.030Z,12.5
2022-11-07T20:22:11.742Z,12.5
2022-11-07T20:27:05.007Z,12.5
2022-11-07T20:29:30.085Z,12.5
2022-11-07T20:31:56.658Z,12.5
2022-11-07T20:34:23.283Z,12.5
2022-11-07T20:36:49.936Z,12.5
2022-11-07T20:39:16.539Z,12.5
2022-11-07T20:41:43.148Z,12.5
2022-11-07T20:46:36.586Z,12.4
2022-11-07T20:51:29.903Z,12.4
2022-11-07T20:53:56.263Z,12.5
2022-11-07T20:56:22.877Z,12.4
2022-11-07T20:58:49.724Z,12.4
2022-11-07T21:01:14.721Z,12.5
2022-11-07T21:03:41.436Z,12.4
2022-11-07T21:06:07.956Z,12.4
2022-11-07T21:08:34.699Z,12.5
2022-11-07T21:11:01.282Z,12.5
2022-11-07T21:15:54.385Z,12.4
2022-11-07T21:20:47.620Z,12.4
2022-11-07T21:23:14.258Z,12.4
2022-11-07T21:25:40.866Z,12.4
2022-11-07T21:28:07.487Z,12.4
2022-11-07T21:30:34.198Z,12.4
2022-11-07T21:32:59.250Z,12.4
2022-11-07T21:35:25.869Z,12.4
2022-11-07T21:40:19.117Z,12.4
2022-11-07T21:42:45.741Z,12.4
2022-11-07T21:45:12.355Z,12.4
2022-11-07T21:47:38.958Z,12.4
2022-11-07T21:50:05.625Z,12.4
2022-11-07T21:52:32.227Z,12.4
2022-11-07T21:54:58.835Z,12.4
2022-11-07T21:57:25.480Z,12.4
2022-11-07T21:59:52.098Z,12.4
2022-11-07T22:04:45.331Z,12.4
2022-11-07T22:07:10.471Z,12.4
2022-11-07T22:09:37.089Z,12.4
2022-11-07T22:12:03.712Z,12.4
2022-11-07T22:14:30.355Z,12.4
2022-11-07T22:16:56.959Z,12.4
2022-11-07T22:19:23.584Z,12.4
2022-11-07T22:26:43.513Z,12.4
2022-11-07T22:29:10.085Z,12.4
2022-11-07T22:31:36.689Z,12.4
2022-11-07T22:34:03.353Z,12.4
2022-11-07T22:36:29.980Z,12.4
2022-11-07T22:38:55.072Z,12.4
2022-11-07T22:41:21.748Z,12.4
2022-11-07T22:43:48.325Z,12.4
2022-11-07T22:46:14.935Z,12.4
2022-11-07T22:48:41.566Z,12.4
2022-11-07T22:51:08.409Z,12.4
2022-11-07T22:53:34.828Z,12.4
2022-11-07T22:56:01.430Z,12.4
2022-11-07T22:58:28.063Z,12.4
2022-11-07T23:00:54.733Z,12.4
2022-11-07T23:03:21.305Z,12.4
2022-11-07T23:05:47.928Z,12.4
2022-11-07T23:08:14.564Z,12.3
2022-11-07T23:10:39.674Z,12.4
2022-11-07T23:13:06.315Z,12.4
2022-11-07T23:17:58.048Z,12.4
2022-11-07T23:22:49.816Z,12.4
2022-11-07T23:25:16.435Z,12.3
2022-11-07T23:27:41.589Z,12.4
2022-11-07T23:30:08.178Z,12.4
2022-11-07T23:32:34.856Z,12.3
2022-11-07T23:35:01.480Z,12.3
2022-11-07T23:37:28.050Z,12.3
2022-11-07T23:39:54.675Z,12.4
2022-11-07T23:42:21.298Z,12.3
2022-11-07T23:44:47.918Z,12.3
2022-11-07T23:47:14.588Z,12.3
2022-11-07T23:49:41.212Z,12.3
2022-11-07T23:52:07.802Z,12.3
2022-11-07T23:54:34.425Z,12.3
2022-11-07T23:57:01.063Z,12.3
2022-11-07T23:59:26.175Z,12.3
